ADDS METAR Data INFO
IDs: Format: Raw Decoded Include TAF

Data at: 1937 UTC 17 Jul 2018

METAR for:KMGY (Dayton/Wright Brothe, OH, US)
Text:KMGY 171853Z AUTO 32012G19KT 10SM CLR 31/13 A3000 RMK AO2 SLP149 T03060133
Temperature: 30.6°C ( 87°F)
Dewpoint: 13.3°C ( 56°F) [RH = 35%]
Pressure (altimeter):30.00 inches Hg (1016.0 mb) [Sea level pressure: 1014.9 mb]
Winds:from the NW (320 degrees) at 14 MPH (12 knots; 6.2 m/s) gusting to 22 MPH (19 knots; 9.8 m/s)
Visibility:10 or more sm (16+ km)
Ceiling:at least 12,000 feet AGL
Clouds:sky clear below 12,000 feet AGL
QC Flag:automated observation with no human augmentation